createdAt,value
2022-08-07T00:00:28.009Z,19.30
2022-08-07T00:02:58.103Z,19.30
2022-08-07T00:05:26.808Z,19.30
2022-08-07T00:08:00.129Z,19.30
2022-08-07T00:10:30.836Z,19.30
2022-08-07T00:13:23.474Z,19.20
2022-08-07T00:15:51.240Z,19.20
2022-08-07T00:18:23.968Z,19.20
2022-08-07T00:20:54.913Z,19.20
2022-08-07T00:23:25.077Z,19.20
2022-08-07T00:26:00.085Z,19.20
2022-08-07T00:28:33.332Z,19.20
2022-08-07T00:31:12.359Z,19.20
2022-08-07T00:33:41.384Z,19.20
2022-08-07T00:36:10.084Z,19.10
2022-08-07T00:38:39.076Z,19.10
2022-08-07T00:41:10.133Z,19.10
2022-08-07T00:44:01.081Z,19.10
2022-08-07T00:46:33.169Z,19.10
2022-08-07T00:49:03.293Z,19.10
2022-08-07T00:51:57.211Z,19.00
2022-08-07T00:54:20.127Z,19.00
2022-08-07T00:56:50.154Z,19.00
2022-08-07T00:59:32.657Z,19.00
2022-08-07T01:02:14.107Z,19.00
2022-08-07T01:04:58.445Z,19.00
2022-08-07T01:07:29.551Z,18.90
2022-08-07T01:10:04.609Z,18.90
2022-08-07T01:12:33.370Z,18.90
2022-08-07T01:15:04.038Z,18.90
2022-08-07T01:17:33.559Z,18.80
2022-08-07T01:20:09.093Z,18.80
2022-08-07T01:22:58.450Z,18.80
2022-08-07T01:25:54.302Z,18.80
2022-08-07T01:28:14.907Z,18.70
2022-08-07T01:30:44.602Z,18.70
2022-08-07T01:33:14.042Z,18.70
2022-08-07T01:35:54.334Z,18.70
2022-08-07T01:38:26.019Z,18.70
2022-08-07T01:41:02.350Z,18.60
2022-08-07T01:43:34.734Z,18.60
2022-08-07T01:46:08.408Z,18.60
2022-08-07T01:48:46.677Z,18.50
2022-08-07T01:52:03.574Z,18.50
2022-08-07T01:54:33.034Z,18.50
2022-08-07T01:57:30.910Z,18.40
2022-08-07T02:00:12.862Z,18.40
2022-08-07T02:03:18.555Z,18.40
2022-08-07T02:06:02.487Z,18.30
2022-08-07T02:08:41.741Z,18.30
2022-08-07T02:11:30.817Z,18.30
2022-08-07T02:14:04.667Z,18.20
2022-08-07T02:16:38.478Z,18.20
2022-08-07T02:20:06.993Z,18.20
2022-08-07T02:22:02.781Z,18.20
2022-08-07T02:24:31.090Z,18.10
2022-08-07T02:27:02.627Z,18.10
2022-08-07T02:29:36.717Z,18.10
2022-08-07T02:32:14.520Z,18.00
2022-08-07T02:34:48.957Z,18.00
2022-08-07T02:37:22.215Z,17.90
2022-08-07T02:40:11.593Z,17.90
2022-08-07T02:42:39.759Z,17.90
2022-08-07T02:46:00.460Z,17.90
2022-08-07T02:48:01.863Z,17.80
2022-08-07T02:50:34.341Z,17.80
2022-08-07T02:53:11.758Z,17.80
2022-08-07T02:56:03.710Z,17.80
2022-08-07T02:58:35.684Z,17.70
2022-08-07T03:01:10.393Z,17.70
2022-08-07T03:03:50.613Z,17.70
2022-08-07T03:06:33.233Z,17.60
2022-08-07T03:09:05.934Z,17.60
2022-08-07T03:11:38.992Z,17.60
2022-08-07T03:14:22.491Z,17.50
2022-08-07T03:16:50.833Z,17.50
2022-08-07T03:19:21.396Z,17.50
2022-08-07T03:21:51.185Z,17.40
2022-08-07T03:24:26.919Z,17.40
2022-08-07T03:27:02.328Z,17.30
2022-08-07T03:29:50.756Z,17.30
2022-08-07T03:32:34.053Z,17.30
2022-08-07T03:35:18.505Z,17.20
2022-08-07T03:38:01.840Z,17.20
2022-08-07T03:40:36.495Z,17.20
2022-08-07T03:43:14.440Z,17.10
2022-08-07T03:45:50.390Z,17.10
2022-08-07T03:48:24.151Z,17.00
2022-08-07T03:50:57.727Z,17.00
2022-08-07T03:54:05.713Z,17.00
2022-08-07T03:56:33.307Z,16.90
2022-08-07T03:59:09.606Z,16.80
2022-08-07T04:01:45.444Z,16.80
2022-08-07T04:04:18.643Z,16.80
2022-08-07T04:06:52.115Z,16.80
2022-08-07T04:09:23.401Z,16.70
2022-08-07T04:12:24.813Z,16.70
2022-08-07T04:14:49.022Z,16.60
2022-08-07T04:17:21.876Z,16.60
2022-08-07T04:19:55.530Z,16.60
2022-08-07T04:22:29.207Z,16.50
2022-08-07T04:25:02.048Z,16.50
2022-08-07T04:27:35.438Z,16.40
2022-08-07T04:30:20.962Z,16.40
2022-08-07T04:32:58.332Z,16.30
2022-08-07T04:35:35.293Z,16.30
2022-08-07T04:38:09.366Z,16.30
2022-08-07T04:40:52.177Z,16.20
2022-08-07T04:44:10.026Z,16.20
2022-08-07T04:47:04.906Z,16.20
2022-08-07T04:49:57.555Z,16.10
2022-08-07T04:52:58.089Z,16.10
2022-08-07T04:58:10.080Z,16.00
2022-08-07T04:59:07.690Z,16.00
2022-08-07T05:01:46.555Z,15.90
2022-08-07T05:04:47.290Z,15.90
2022-08-07T05:07:30.502Z,15.80
2022-08-07T05:10:13.833Z,15.80
2022-08-07T05:13:09.871Z,15.80
2022-08-07T05:15:50.927Z,15.80
2022-08-07T05:18:27.075Z,15.70
2022-08-07T05:21:05.827Z,15.70
2022-08-07T05:23:40.428Z,15.70
2022-08-07T05:26:31.679Z,15.70
2022-08-07T05:29:10.150Z,15.70
2022-08-07T05:31:41.144Z,15.70
2022-08-07T05:34:26.321Z,15.70
2022-08-07T05:36:56.665Z,15.70
2022-08-07T05:40:16.532Z,15.70
2022-08-07T05:42:37.054Z,15.60
2022-08-07T05:45:14.455Z,15.60
2022-08-07T05:48:02.727Z,15.60
2022-08-07T05:50:42.945Z,15.70
2022-08-07T05:54:12.100Z,15.70
2022-08-07T05:56:05.985Z,15.70
2022-08-07T05:58:40.557Z,15.70
2022-08-07T06:01:14.270Z,15.80
2022-08-07T06:04:01.008Z,15.80
2022-08-07T06:06:36.234Z,15.80
2022-08-07T06:09:07.229Z,15.80
2022-08-07T06:11:39.128Z,15.90
2022-08-07T06:14:11.763Z,15.90
2022-08-07T06:16:55.966Z,16.00
2022-08-07T06:19:57.836Z,16.00
2022-08-07T06:22:24.136Z,16.10
2022-08-07T06:25:15.229Z,16.10
2022-08-07T06:28:01.308Z,16.20
2022-08-07T06:30:35.569Z,16.30
2022-08-07T06:33:16.701Z,16.30
2022-08-07T06:36:06.562Z,16.40
2022-08-07T06:38:36.101Z,16.50
2022-08-07T06:41:15.935Z,16.60
2022-08-07T06:44:01.546Z,16.60
2022-08-07T06:46:35.641Z,16.70
2022-08-07T06:49:05.506Z,16.80
2022-08-07T06:51:49.726Z,16.90
2022-08-07T06:55:34.246Z,17.00
2022-08-07T06:57:13.733Z,17.00
2022-08-07T07:00:13.187Z,17.10
2022-08-07T07:02:54.638Z,17.20
2022-08-07T07:06:05.421Z,17.30
2022-08-07T07:08:18.877Z,17.40
2022-08-07T07:10:54.792Z,17.50
2022-08-07T07:13:58.127Z,17.60
2022-08-07T07:16:33.901Z,17.70
2022-08-07T07:19:54.626Z,17.80
2022-08-07T07:22:04.972Z,17.90
2022-08-07T07:24:43.223Z,18.00
2022-08-07T07:27:35.497Z,18.10
2022-08-07T07:30:32.726Z,18.20
2022-08-07T07:33:07.935Z,18.30
2022-08-07T07:35:54.770Z,18.40
2022-08-07T07:38:27.522Z,18.40
2022-08-07T07:41:02.181Z,18.50
2022-08-07T07:43:48.045Z,18.60
2022-08-07T07:46:53.203Z,18.70
2022-08-07T07:50:31.474Z,18.80
2022-08-07T07:52:03.450Z,18.90
2022-08-07T07:54:33.224Z,19.00
2022-08-07T07:57:06.825Z,19.10
2022-08-07T07:59:51.693Z,19.20
2022-08-07T08:02:22.612Z,19.30
2022-08-07T08:05:04.599Z,19.40
2022-08-07T08:07:35.489Z,19.50
2022-08-07T08:10:14.717Z,19.60
2022-08-07T08:13:00.614Z,19.60
2022-08-07T08:15:57.641Z,19.70
2022-08-07T08:18:28.519Z,19.80
2022-08-07T08:21:00.254Z,19.90
2022-08-07T08:23:53.544Z,19.90
2022-08-07T08:26:41.415Z,20.10
2022-08-07T08:29:10.819Z,20.10
2022-08-07T08:32:04.850Z,20.20
2022-08-07T08:34:35.634Z,20.30
2022-08-07T08:37:09.905Z,20.40
2022-08-07T08:39:58.707Z,20.40
2022-08-07T08:43:02.022Z,20.50
2022-08-07T08:45:41.908Z,20.60
2022-08-07T08:48:36.376Z,20.70
2022-08-07T08:51:49.260Z,20.80
2022-08-07T08:54:32.652Z,20.90
2022-08-07T08:57:10.990Z,21.00
2022-08-07T08:59:57.328Z,21.10
2022-08-07T09:02:40.476Z,21.20
2022-08-07T09:05:46.768Z,21.30
2022-08-07T09:08:50.291Z,21.50
2022-08-07T09:11:43.408Z,21.60
2022-08-07T09:14:38.516Z,21.70
2022-08-07T09:17:59.777Z,21.80
2022-08-07T09:20:57.804Z,21.90
2022-08-07T09:24:30.794Z,22.10
2022-08-07T09:26:39.204Z,22.20
2022-08-07T09:30:02.141Z,22.20
2022-08-07T09:32:34.234Z,22.40
2022-08-07T09:36:03.026Z,22.40
2022-08-07T09:38:31.557Z,22.50
2022-08-07T09:41:15.475Z,22.70
2022-08-07T09:44:19.327Z,22.70
2022-08-07T09:47:59.133Z,22.90
2022-08-07T09:50:19.591Z,23.00
2022-08-07T09:53:00.180Z,23.00
2022-08-07T09:56:03.151Z,23.10
2022-08-07T09:58:51.397Z,23.30
2022-08-07T10:01:51.019Z,23.40
2022-08-07T10:04:32.794Z,23.60
2022-08-07T10:07:40.004Z,23.70
2022-08-07T10:11:00.160Z,23.80
2022-08-07T10:14:00.303Z,24.00
2022-08-07T10:16:59.563Z,24.10
2022-08-07T10:19:30.161Z,24.20
2022-08-07T10:22:16.949Z,24.40
2022-08-07T10:25:42.224Z,24.50
2022-08-07T10:28:28.708Z,24.80
2022-08-07T10:31:11.859Z,25.00
2022-08-07T10:34:14.255Z,25.30
2022-08-07T10:37:13.995Z,25.70
2022-08-07T10:40:06.021Z,26.10
2022-08-07T10:42:42.625Z,26.40
2022-08-07T10:45:45.014Z,26.70
2022-08-07T10:48:34.945Z,27.10
2022-08-07T10:51:16.815Z,27.40
2022-08-07T10:54:41.325Z,27.80
2022-08-07T10:57:38.020Z,28.20
2022-08-07T11:00:36.910Z,28.50
2022-08-07T11:03:16.367Z,28.80
2022-08-07T11:06:11.384Z,29.10
2022-08-07T11:08:52.858Z,29.30
2022-08-07T11:11:35.944Z,29.50
2022-08-07T11:14:45.905Z,29.80
2022-08-07T11:17:07.263Z,30.10
2022-08-07T11:19:40.446Z,30.40
2022-08-07T11:22:26.524Z,30.60
2022-08-07T11:25:10.847Z,30.90
2022-08-07T11:28:01.419Z,31.00
2022-08-07T11:31:08.844Z,31.20
2022-08-07T11:33:54.288Z,31.40
2022-08-07T11:37:02.952Z,31.60
2022-08-07T11:40:00.086Z,31.90
2022-08-07T11:42:35.692Z,32.10
2022-08-07T11:45:12.436Z,32.50
2022-08-07T11:47:59.525Z,32.70
2022-08-07T11:50:44.517Z,32.90
2022-08-07T11:54:00.873Z,33.20
2022-08-07T11:56:36.846Z,33.40
2022-08-07T12:00:11.639Z,33.70
2022-08-07T12:02:30.625Z,33.90
2022-08-07T12:05:28.528Z,34.00
2022-08-07T12:08:25.924Z,34.20
2022-08-07T12:11:21.056Z,34.20
2022-08-07T12:14:05.496Z,34.20
2022-08-07T12:16:41.679Z,34.40
2022-08-07T12:19:35.758Z,34.40
2022-08-07T12:22:56.463Z,34.60
2022-08-07T12:26:21.778Z,34.70
2022-08-07T12:28:58.977Z,34.80
2022-08-07T12:32:12.804Z,35.00
2022-08-07T12:34:49.471Z,35.20
2022-08-07T12:37:27.852Z,35.30
2022-08-07T12:40:36.389Z,35.50
2022-08-07T12:43:01.826Z,35.60
2022-08-07T12:45:37.666Z,35.80
2022-08-07T12:48:28.211Z,36.00
2022-08-07T12:51:23.681Z,36.10
2022-08-07T12:54:37.904Z,36.30
2022-08-07T12:57:10.344Z,36.50
2022-08-07T12:59:53.903Z,36.70
2022-08-07T13:02:33.243Z,36.80
2022-08-07T13:06:03.571Z,37.00
2022-08-07T13:08:33.770Z,37.10
2022-08-07T13:12:03.473Z,37.30
2022-08-07T13:14:31.090Z,37.40
2022-08-07T13:17:18.178Z,37.50
2022-08-07T13:19:51.675Z,37.60
2022-08-07T13:23:09.973Z,37.60
2022-08-07T13:26:00.832Z,37.60
2022-08-07T13:28:46.471Z,37.60
2022-08-07T13:31:46.129Z,37.60
2022-08-07T13:35:08.813Z,37.70
2022-08-07T13:38:02.747Z,37.80
2022-08-07T13:40:43.230Z,37.90
2022-08-07T13:43:15.003Z,38.00
2022-08-07T13:46:11.578Z,38.20
2022-08-07T13:48:38.645Z,38.30
2022-08-07T13:51:27.352Z,38.50
2022-08-07T13:54:09.131Z,38.60
2022-08-07T13:56:52.104Z,38.70
2022-08-07T13:59:31.389Z,38.90
2022-08-07T14:02:12.673Z,39.10
2022-08-07T14:04:54.616Z,39.20
2022-08-07T14:07:31.978Z,39.40
2022-08-07T14:10:17.573Z,39.50
2022-08-07T14:13:02.960Z,39.70
2022-08-07T14:15:42.260Z,39.90
2022-08-07T14:18:31.371Z,40.00
2022-08-07T14:22:00.397Z,40.10
2022-08-07T14:24:06.282Z,40.10
2022-08-07T14:26:50.733Z,40.10
2022-08-07T14:30:07.186Z,40.10
2022-08-07T14:32:17.421Z,40.10
2022-08-07T14:34:48.074Z,40.20
2022-08-07T14:37:18.064Z,40.30
2022-08-07T14:40:17.708Z,40.40
2022-08-07T14:43:01.264Z,40.50
2022-08-07T14:45:49.966Z,40.70
2022-08-07T14:51:15.949Z,40.90
2022-08-07T14:54:05.869Z,41.00
2022-08-07T14:56:39.191Z,41.20
2022-08-07T14:59:13.772Z,41.20
2022-08-07T15:02:08.143Z,41.40
2022-08-07T15:04:57.198Z,41.30
2022-08-07T15:07:46.330Z,41.10
2022-08-07T15:10:26.089Z,41.10
2022-08-07T15:16:19.798Z,41.10
2022-08-07T15:19:02.236Z,40.90
2022-08-07T15:21:43.975Z,40.80
2022-08-07T15:27:29.831Z,40.70
2022-08-07T15:36:01.477Z,40.80
2022-08-07T15:38:50.988Z,40.90
2022-08-07T15:44:19.824Z,40.90
2022-08-07T15:46:55.908Z,40.90
2022-08-07T15:52:30.274Z,40.80
2022-08-07T15:55:03.796Z,40.70
2022-08-07T15:57:47.705Z,40.80
2022-08-07T16:00:31.418Z,40.70
2022-08-07T16:03:04.911Z,40.60
2022-08-07T16:05:33.346Z,40.60
2022-08-07T16:08:38.124Z,40.60
2022-08-07T16:11:28.798Z,40.60
2022-08-07T16:14:24.911Z,40.50
2022-08-07T16:17:15.205Z,40.40
2022-08-07T16:20:04.757Z,40.40
2022-08-07T16:22:58.333Z,40.30
2022-08-07T16:25:54.891Z,40.20
2022-08-07T16:30:08.295Z,40.10
2022-08-07T16:31:51.783Z,40.00
2022-08-07T16:34:40.192Z,39.80
2022-08-07T16:38:04.827Z,39.70
2022-08-07T16:40:56.980Z,39.60
2022-08-07T16:44:03.860Z,39.40
2022-08-07T16:47:08.731Z,39.30
2022-08-07T16:50:20.119Z,39.10
2022-08-07T16:52:55.323Z,38.90
2022-08-07T16:55:46.991Z,38.70
2022-08-07T16:58:47.955Z,38.50
2022-08-07T17:01:48.541Z,38.40
2022-08-07T17:04:27.805Z,38.10
2022-08-07T17:07:55.473Z,38.00
2022-08-07T17:10:41.964Z,37.80
2022-08-07T17:13:41.428Z,37.60
2022-08-07T17:16:22.446Z,37.50
2022-08-07T17:19:15.851Z,37.20
2022-08-07T17:21:52.312Z,37.10
2022-08-07T17:24:41.664Z,36.90
2022-08-07T17:27:20.172Z,36.70
2022-08-07T17:30:15.773Z,36.50
2022-08-07T17:33:02.150Z,36.40
2022-08-07T17:35:55.038Z,36.20
2022-08-07T17:38:35.225Z,36.00
2022-08-07T17:42:04.455Z,35.80
2022-08-07T17:44:13.731Z,35.60
2022-08-07T17:46:53.603Z,35.30
2022-08-07T17:49:44.992Z,35.00
2022-08-07T17:52:31.858Z,34.80
2022-08-07T17:55:13.495Z,34.50
2022-08-07T17:57:58.711Z,34.30
2022-08-07T18:00:34.442Z,34.00
2022-08-07T18:04:04.179Z,33.80
2022-08-07T18:06:38.624Z,33.50
2022-08-07T18:09:08.617Z,33.20
2022-08-07T18:12:16.256Z,33.00
2022-08-07T18:14:59.880Z,32.70
2022-08-07T18:18:46.314Z,32.50
2022-08-07T18:21:11.871Z,32.20
2022-08-07T18:24:28.477Z,32.00
2022-08-07T18:27:39.248Z,31.70
2022-08-07T18:30:30.719Z,31.40
2022-08-07T18:33:28.325Z,31.20
2022-08-07T18:36:14.767Z,31.00
2022-08-07T18:40:07.210Z,30.80
2022-08-07T18:42:12.816Z,30.60
2022-08-07T18:45:43.375Z,30.30
2022-08-07T18:50:06.830Z,30.20
2022-08-07T18:51:14.885Z,30.00
2022-08-07T18:53:48.758Z,29.80
2022-08-07T18:56:32.790Z,29.60
2022-08-07T18:59:47.609Z,29.50
2022-08-07T19:02:45.087Z,29.40
2022-08-07T19:05:27.897Z,29.20
2022-08-07T19:09:09.452Z,29.10
2022-08-07T19:12:15.856Z,28.90
2022-08-07T19:16:02.973Z,28.70
2022-08-07T19:18:03.306Z,28.60
2022-08-07T19:21:09.109Z,28.40
2022-08-07T19:23:59.366Z,28.30
2022-08-07T19:26:29.390Z,28.20
2022-08-07T19:31:00.137Z,28.10
2022-08-07T19:32:25.711Z,28.00
2022-08-07T19:34:59.695Z,27.90
2022-08-07T19:37:55.146Z,27.80
2022-08-07T19:40:31.220Z,27.70
2022-08-07T19:43:08.872Z,27.60
2022-08-07T19:46:04.846Z,27.50
2022-08-07T19:48:43.944Z,27.40
2022-08-07T19:51:24.380Z,27.30
2022-08-07T19:54:29.499Z,27.20
2022-08-07T19:58:00.369Z,27.10
2022-08-07T19:59:54.334Z,27.10
2022-08-07T20:02:33.478Z,26.90
2022-08-07T20:05:07.953Z,26.90
2022-08-07T20:07:47.186Z,26.80
2022-08-07T20:10:36.397Z,26.70
2022-08-07T20:13:23.301Z,26.60
2022-08-07T20:15:58.587Z,26.60
2022-08-07T20:18:32.571Z,26.50
2022-08-07T20:21:21.034Z,26.40
2022-08-07T20:24:01.019Z,26.30
2022-08-07T20:26:32.614Z,26.20
2022-08-07T20:29:46.643Z,26.10
2022-08-07T20:32:01.042Z,26.10
2022-08-07T20:34:49.399Z,26.00
2022-08-07T20:37:47.045Z,25.90
2022-08-07T20:40:32.887Z,25.80
2022-08-07T20:43:09.637Z,25.70
2022-08-07T20:46:25.697Z,25.70
2022-08-07T20:48:34.840Z,25.60
2022-08-07T20:51:09.605Z,25.50
2022-08-07T20:54:03.404Z,25.40
2022-08-07T20:56:34.858Z,25.30
2022-08-07T20:59:05.994Z,25.20
2022-08-07T21:01:36.583Z,25.10
2022-08-07T21:04:22.691Z,25.10
2022-08-07T21:06:55.389Z,25.00
2022-08-07T21:09:51.761Z,24.90
2022-08-07T21:12:28.615Z,24.80
2022-08-07T21:15:01.217Z,24.70
2022-08-07T21:18:03.075Z,24.60
2022-08-07T21:20:30.362Z,24.50
2022-08-07T21:23:09.210Z,24.40
2022-08-07T21:26:20.465Z,24.40
2022-08-07T21:28:58.889Z,24.30
2022-08-07T21:32:42.785Z,24.20
2022-08-07T21:34:48.608Z,24.10
2022-08-07T21:37:58.736Z,24.00
2022-08-07T21:40:44.007Z,23.90
2022-08-07T21:43:23.256Z,23.80
2022-08-07T21:46:10.365Z,23.70
2022-08-07T21:49:02.716Z,23.60
2022-08-07T21:51:51.033Z,23.50
2022-08-07T21:54:28.044Z,23.40
2022-08-07T21:57:39.522Z,23.40
2022-08-07T22:00:23.173Z,23.30
2022-08-07T22:03:42.708Z,23.20
2022-08-07T22:06:30.761Z,23.10
2022-08-07T22:09:12.368Z,23.00
2022-08-07T22:12:05.812Z,23.00
2022-08-07T22:14:59.729Z,22.90
2022-08-07T22:17:36.886Z,22.90
2022-08-07T22:20:43.619Z,22.80
2022-08-07T22:23:43.390Z,22.70
2022-08-07T22:26:21.432Z,22.60
2022-08-07T22:29:04.958Z,22.50
2022-08-07T22:32:05.395Z,22.50
2022-08-07T22:34:56.609Z,22.40
2022-08-07T22:38:02.976Z,22.30
2022-08-07T22:40:59.761Z,22.30
2022-08-07T22:43:42.796Z,22.20
2022-08-07T22:47:02.782Z,22.10
2022-08-07T22:49:37.899Z,22.10
2022-08-07T22:52:19.636Z,22.00
2022-08-07T22:55:30.149Z,21.90
2022-08-07T22:58:16.905Z,21.90
2022-08-07T23:01:06.198Z,21.80
2022-08-07T23:04:00.202Z,21.80
2022-08-07T23:06:39.290Z,21.80
2022-08-07T23:10:00.666Z,21.70
2022-08-07T23:12:20.964Z,21.60
2022-08-07T23:16:06.032Z,21.50
2022-08-07T23:19:11.043Z,21.50
2022-08-07T23:21:56.535Z,21.40
2022-08-07T23:24:45.551Z,21.30
2022-08-07T23:27:33.332Z,21.20
2022-08-07T23:30:38.709Z,21.20
2022-08-07T23:34:24.896Z,21.20
2022-08-07T23:37:17.673Z,21.10
2022-08-07T23:39:48.396Z,21.10
2022-08-07T23:42:55.231Z,21.00
2022-08-07T23:46:02.585Z,21.00
2022-08-07T23:48:40.961Z,20.90
2022-08-07T23:53:01.266Z,20.90
2022-08-07T23:54:44.202Z,20.90
2022-08-07T23:57:28.062Z,20.80
